BAW18DL EIDW-EGKK
Flight info
| Callsign | BAW18DL |
|---|---|
| Flight time | 0h 57m |
| Altitude | 25000 |
| Route | ENDEQ1E ENDEQ Q36 EPOXI L15 KEPAD L151 DISIT |
| Aircraft | A20N/M-SDE2E3FGHIRWXY/LB1 |
Departure
| Time | 2026-05-04 12:18 |
|---|---|
| Airport | Dublin Airport (EIDW) |
Arrival
| Time | 2026-05-04 13:15 |
|---|---|
| Airport | London Gatwick Airport (EGKK) |
| Time | Latitude | Longitude | Altitude | Speed | Heading |
|---|---|---|---|---|---|
| 2026-05-04 11:26 | 53.43028 | -6.25007 | 225 ft | 0 kts | 5° |
| 2026-05-04 12:05 | 53.43013 | -6.25009 | 224 ft | 4 kts | 5° |
| 2026-05-04 12:06 | 53.42986 | -6.25014 | 228 ft | 4 kts | 2° |
| 2026-05-04 12:06 | 53.42962 | -6.25006 | 228 ft | 4 kts | 313° |
| 2026-05-04 12:06 | 53.42953 | -6.24975 | 226 ft | 1 kts | 276° |
| 2026-05-04 12:06 | 53.42952 | -6.24968 | 226 ft | 0 kts | 276° |
| 2026-05-04 12:11 | 53.42954 | -6.24999 | 228 ft | 9 kts | 275° |
| 2026-05-04 12:11 | 53.42962 | -6.25155 | 224 ft | 16 kts | 275° |
| 2026-05-04 12:11 | 53.42933 | -6.25338 | 225 ft | 15 kts | 220° |
| 2026-05-04 12:11 | 53.42892 | -6.25408 | 227 ft | 0 kts | 226° |
| 2026-05-04 12:14 | 53.42272 | -6.26361 | 225 ft | 24 kts | 275° |
| 2026-05-04 12:15 | 53.42288 | -6.26651 | 225 ft | 26 kts | 276° |
| 2026-05-04 12:15 | 53.42305 | -6.26956 | 225 ft | 27 kts | 275° |
| 2026-05-04 12:15 | 53.42321 | -6.27276 | 225 ft | 28 kts | 275° |
| 2026-05-04 12:15 | 53.42337 | -6.27572 | 227 ft | 29 kts | 275° |
| 2026-05-04 12:16 | 53.42355 | -6.27878 | 225 ft | 30 kts | 275° |
| 2026-05-04 12:16 | 53.42373 | -6.28209 | 225 ft | 19 kts | 275° |
| 2026-05-04 12:16 | 53.42319 | -6.28320 | 226 ft | 0 kts | 182° |
| 2026-05-04 12:17 | 53.42298 | -6.28316 | 227 ft | 9 kts | 165° |
| 2026-05-04 12:17 | 53.42225 | -6.28221 | 238 ft | 18 kts | 133° |
| 2026-05-04 12:17 | 53.42182 | -6.27880 | 234 ft | 65 kts | 95° |
| 2026-05-04 12:17 | 53.42126 | -6.26848 | 232 ft | 129 kts | 96° |
| 2026-05-04 12:18 | 53.42040 | -6.25267 | 436 ft | 163 kts | 94° |
| 2026-05-04 12:18 | 53.41936 | -6.23535 | 933 ft | 170 kts | 94° |
| 2026-05-04 12:18 | 53.41824 | -6.21644 | 1533 ft | 179 kts | 93° |
| 2026-05-04 12:18 | 53.41726 | -6.20004 | 1996 ft | 188 kts | 93° |
| 2026-05-04 12:19 | 53.41616 | -6.17910 | 2386 ft | 208 kts | 92° |
| 2026-05-04 12:19 | 53.41500 | -6.15662 | 2799 ft | 226 kts | 92° |
| 2026-05-04 12:19 | 53.41373 | -6.13235 | 3354 ft | 235 kts | 92° |
| 2026-05-04 12:19 | 53.41221 | -6.10417 | 3934 ft | 252 kts | 92° |
| 2026-05-04 12:20 | 53.41062 | -6.07532 | 4639 ft | 261 kts | 94° |
| 2026-05-04 12:20 | 53.40893 | -6.04466 | 5534 ft | 265 kts | 93° |
| 2026-05-04 12:20 | 53.40938 | -6.02420 | 6095 ft | 268 kts | 82° |
| 2026-05-04 12:20 | 53.41198 | -5.98863 | 7025 ft | 274 kts | 82° |
| 2026-05-04 12:21 | 53.41408 | -5.96048 | 7797 ft | 276 kts | 82° |
| 2026-05-04 12:21 | 53.41623 | -5.93139 | 8573 ft | 280 kts | 82° |
| 2026-05-04 12:21 | 53.41863 | -5.89874 | 9439 ft | 283 kts | 82° |
| 2026-05-04 12:21 | 53.42104 | -5.86574 | 10258 ft | 288 kts | 82° |
| 2026-05-04 12:22 | 53.42354 | -5.83137 | 10659 ft | 308 kts | 82° |
| 2026-05-04 12:22 | 53.42617 | -5.79497 | 10907 ft | 330 kts | 82° |
| 2026-05-04 12:22 | 53.42885 | -5.75610 | 11446 ft | 339 kts | 82° |
| 2026-05-04 12:22 | 53.43151 | -5.71602 | 12235 ft | 343 kts | 83° |
| 2026-05-04 12:23 | 53.43410 | -5.67665 | 12981 ft | 346 kts | 83° |
| 2026-05-04 12:23 | 53.43645 | -5.64114 | 13626 ft | 350 kts | 83° |
| 2026-05-04 12:23 | 53.43886 | -5.60462 | 14248 ft | 353 kts | 83° |
| 2026-05-04 12:23 | 53.44123 | -5.56866 | 14869 ft | 355 kts | 82° |
| 2026-05-04 12:24 | 53.44348 | -5.53443 | 15440 ft | 357 kts | 83° |
| 2026-05-04 12:24 | 53.44540 | -5.49271 | 16095 ft | 361 kts | 89° |
| 2026-05-04 12:24 | 53.44455 | -5.45057 | 16823 ft | 362 kts | 91° |
| 2026-05-04 12:24 | 53.44345 | -5.40860 | 17462 ft | 366 kts | 91° |
| 2026-05-04 12:25 | 53.44238 | -5.36564 | 18075 ft | 370 kts | 91° |
| 2026-05-04 12:25 | 53.44129 | -5.32245 | 18779 ft | 369 kts | 91° |
| 2026-05-04 12:25 | 53.44019 | -5.27918 | 19328 ft | 373 kts | 91° |
| 2026-05-04 12:25 | 53.43907 | -5.23542 | 19864 ft | 377 kts | 91° |
| 2026-05-04 12:26 | 53.43791 | -5.19155 | 20457 ft | 378 kts | 91° |
| 2026-05-04 12:26 | 53.43672 | -5.14730 | 21003 ft | 382 kts | 91° |
| 2026-05-04 12:26 | 53.43558 | -5.10875 | 21483 ft | 384 kts | 91° |
| 2026-05-04 12:26 | 53.43475 | -5.08231 | 21827 ft | 385 kts | 92° |
| 2026-05-04 12:27 | 53.43283 | -5.02290 | 22581 ft | 388 kts | 91° |
| 2026-05-04 12:27 | 53.43186 | -4.99290 | 22938 ft | 389 kts | 91° |
| 2026-05-04 12:27 | 53.43037 | -4.94690 | 23506 ft | 391 kts | 91° |
| 2026-05-04 12:27 | 53.42891 | -4.90184 | 23982 ft | 393 kts | 91° |
| 2026-05-04 12:28 | 53.42741 | -4.85599 | 24456 ft | 395 kts | 91° |
| 2026-05-04 12:28 | 53.42588 | -4.80972 | 24886 ft | 397 kts | 91° |
| 2026-05-04 12:28 | 53.42471 | -4.77456 | 25028 ft | 398 kts | 91° |
| 2026-05-04 12:28 | 53.42318 | -4.72869 | 25079 ft | 398 kts | 91° |
| 2026-05-04 12:29 | 53.42162 | -4.68238 | 25072 ft | 398 kts | 91° |
| 2026-05-04 12:29 | 53.42004 | -4.63610 | 25079 ft | 398 kts | 91° |
| 2026-05-04 12:29 | 53.41844 | -4.58981 | 25077 ft | 398 kts | 91° |
| 2026-05-04 12:29 | 53.41681 | -4.54341 | 25078 ft | 398 kts | 91° |
| 2026-05-04 12:30 | 53.41518 | -4.49743 | 25077 ft | 398 kts | 91° |
| 2026-05-04 12:30 | 53.41361 | -4.45350 | 25080 ft | 398 kts | 91° |
| 2026-05-04 12:30 | 53.41225 | -4.41597 | 25078 ft | 398 kts | 91° |
| 2026-05-04 12:30 | 53.41062 | -4.37143 | 25076 ft | 398 kts | 91° |
| 2026-05-04 12:31 | 53.40893 | -4.32546 | 25078 ft | 398 kts | 91° |
| 2026-05-04 12:31 | 53.40720 | -4.27905 | 25077 ft | 398 kts | 91° |
| 2026-05-04 12:31 | 53.40545 | -4.23277 | 25076 ft | 398 kts | 91° |
| 2026-05-04 12:31 | 53.40385 | -4.19068 | 25080 ft | 398 kts | 91° |
| 2026-05-04 12:32 | 53.40226 | -4.14916 | 25079 ft | 398 kts | 91° |
| 2026-05-04 12:32 | 53.39887 | -4.06206 | 25079 ft | 397 kts | 92° |
| 2026-05-04 12:32 | 53.39722 | -4.02017 | 25077 ft | 397 kts | 92° |
| 2026-05-04 12:33 | 53.39538 | -3.97396 | 25076 ft | 397 kts | 92° |
| 2026-05-04 12:33 | 53.39352 | -3.92774 | 25075 ft | 397 kts | 92° |
| 2026-05-04 12:33 | 53.39177 | -3.88501 | 25078 ft | 397 kts | 92° |
| 2026-05-04 12:33 | 53.39002 | -3.84258 | 25080 ft | 397 kts | 92° |
| 2026-05-04 12:34 | 53.38809 | -3.79637 | 25078 ft | 397 kts | 92° |
| 2026-05-04 12:34 | 53.38616 | -3.75032 | 25076 ft | 397 kts | 92° |
| 2026-05-04 12:34 | 53.38420 | -3.70465 | 25072 ft | 397 kts | 93° |
| 2026-05-04 12:34 | 53.38024 | -3.65890 | 25073 ft | 399 kts | 100° |
| 2026-05-04 12:35 | 53.37365 | -3.61725 | 25075 ft | 401 kts | 106° |
| 2026-05-04 12:35 | 53.36468 | -3.57805 | 25078 ft | 403 kts | 111° |
| 2026-05-04 12:35 | 53.35350 | -3.53498 | 25075 ft | 403 kts | 111° |
| 2026-05-04 12:35 | 53.34227 | -3.49256 | 25077 ft | 404 kts | 114° |
| 2026-05-04 12:36 | 53.32816 | -3.45121 | 25073 ft | 406 kts | 121° |
| 2026-05-04 12:36 | 53.31144 | -3.41364 | 25075 ft | 409 kts | 127° |
| 2026-05-04 12:36 | 53.29254 | -3.37796 | 25070 ft | 409 kts | 129° |
| 2026-05-04 12:36 | 53.27359 | -3.34224 | 25069 ft | 409 kts | 128° |
| 2026-05-04 12:37 | 53.25473 | -3.30659 | 25074 ft | 409 kts | 128° |
| 2026-05-04 12:37 | 53.23592 | -3.27104 | 25069 ft | 409 kts | 128° |
| 2026-05-04 12:37 | 53.21705 | -3.23540 | 25074 ft | 409 kts | 128° |
| 2026-05-04 12:37 | 53.19819 | -3.19987 | 25077 ft | 408 kts | 128° |
| 2026-05-04 12:38 | 53.18297 | -3.17124 | 25074 ft | 406 kts | 128° |
| 2026-05-04 12:38 | 53.16423 | -3.13601 | 25075 ft | 407 kts | 128° |
| 2026-05-04 12:38 | 53.14947 | -3.10829 | 25075 ft | 407 kts | 128° |
| 2026-05-04 12:38 | 53.13226 | -3.07602 | 25074 ft | 407 kts | 128° |
| 2026-05-04 12:39 | 53.11414 | -3.04209 | 25076 ft | 407 kts | 129° |
| 2026-05-04 12:39 | 53.09528 | -3.00683 | 25075 ft | 408 kts | 129° |
| 2026-05-04 12:39 | 53.07619 | -2.97119 | 25074 ft | 408 kts | 129° |
| 2026-05-04 12:39 | 53.05755 | -2.93647 | 25073 ft | 408 kts | 129° |
| 2026-05-04 12:40 | 53.03870 | -2.90139 | 25070 ft | 408 kts | 129° |
| 2026-05-04 12:40 | 53.01981 | -2.86628 | 25070 ft | 408 kts | 129° |
| 2026-05-04 12:40 | 53.00086 | -2.83109 | 25068 ft | 408 kts | 129° |
| 2026-05-04 12:40 | 52.98194 | -2.79601 | 25068 ft | 408 kts | 129° |
| 2026-05-04 12:41 | 52.96296 | -2.76086 | 25073 ft | 406 kts | 129° |
| 2026-05-04 12:41 | 52.94426 | -2.72628 | 25070 ft | 404 kts | 129° |
| 2026-05-04 12:41 | 52.92574 | -2.69208 | 25072 ft | 405 kts | 129° |
| 2026-05-04 12:41 | 52.90924 | -2.66164 | 25074 ft | 405 kts | 129° |
| 2026-05-04 12:42 | 52.88967 | -2.62561 | 25075 ft | 405 kts | 129° |
| 2026-05-04 12:42 | 52.87484 | -2.59834 | 25075 ft | 405 kts | 129° |
| 2026-05-04 12:42 | 52.85535 | -2.56254 | 25076 ft | 405 kts | 129° |
| 2026-05-04 12:42 | 52.83645 | -2.52787 | 25075 ft | 405 kts | 129° |
| 2026-05-04 12:43 | 52.81713 | -2.49386 | 25073 ft | 407 kts | 134° |
| 2026-05-04 12:43 | 52.79554 | -2.46339 | 25074 ft | 409 kts | 141° |
| 2026-05-04 12:43 | 52.77200 | -2.43680 | 25073 ft | 410 kts | 144° |
| 2026-05-04 12:43 | 52.74830 | -2.41086 | 25072 ft | 410 kts | 144° |
| 2026-05-04 12:44 | 52.72610 | -2.38643 | 25050 ft | 409 kts | 145° |
| 2026-05-04 12:44 | 52.70479 | -2.36294 | 25059 ft | 409 kts | 145° |
| 2026-05-04 12:44 | 52.68298 | -2.33890 | 25047 ft | 409 kts | 145° |
| 2026-05-04 12:44 | 52.66185 | -2.31564 | 25049 ft | 409 kts | 145° |
| 2026-05-04 12:45 | 52.64111 | -2.29285 | 25060 ft | 409 kts | 145° |
| 2026-05-04 12:45 | 52.62039 | -2.27012 | 25061 ft | 409 kts | 145° |
| 2026-05-04 12:45 | 52.59673 | -2.24421 | 25063 ft | 409 kts | 145° |
| 2026-05-04 12:45 | 52.57549 | -2.22098 | 25063 ft | 409 kts | 145° |
| 2026-05-04 12:46 | 52.55441 | -2.19795 | 25064 ft | 409 kts | 145° |
| 2026-05-04 12:46 | 52.53349 | -2.17511 | 25069 ft | 409 kts | 145° |
| 2026-05-04 12:46 | 52.50900 | -2.14843 | 25065 ft | 409 kts | 145° |
| 2026-05-04 12:46 | 52.49311 | -2.13110 | 25067 ft | 408 kts | 146° |
| 2026-05-04 12:47 | 52.47172 | -2.10778 | 25066 ft | 406 kts | 147° |
| 2026-05-04 12:47 | 52.44814 | -2.08217 | 25052 ft | 406 kts | 147° |
| 2026-05-04 12:47 | 52.42488 | -2.05699 | 25053 ft | 407 kts | 147° |
| 2026-05-04 12:47 | 52.40240 | -2.03265 | 25060 ft | 406 kts | 147° |
| 2026-05-04 12:48 | 52.38003 | -2.00845 | 25059 ft | 406 kts | 147° |
| 2026-05-04 12:48 | 52.35648 | -1.98300 | 25063 ft | 406 kts | 147° |
| 2026-05-04 12:48 | 52.33227 | -1.95685 | 25063 ft | 409 kts | 147° |
| 2026-05-04 12:48 | 52.30852 | -1.93127 | 25053 ft | 409 kts | 147° |
| 2026-05-04 12:49 | 52.28480 | -1.90576 | 25056 ft | 409 kts | 147° |
| 2026-05-04 12:49 | 52.26237 | -1.88167 | 25055 ft | 408 kts | 148° |
| 2026-05-04 12:49 | 52.24162 | -1.85939 | 25055 ft | 405 kts | 148° |
| 2026-05-04 12:49 | 52.22015 | -1.83638 | 24902 ft | 405 kts | 148° |
| 2026-05-04 12:50 | 52.19657 | -1.81112 | 24658 ft | 403 kts | 148° |
| 2026-05-04 12:50 | 52.17318 | -1.78610 | 24387 ft | 401 kts | 148° |
| 2026-05-04 12:50 | 52.14983 | -1.76115 | 23888 ft | 401 kts | 148° |
| 2026-05-04 12:50 | 52.12658 | -1.73635 | 23335 ft | 398 kts | 148° |
| 2026-05-04 12:51 | 52.10641 | -1.71486 | 22880 ft | 394 kts | 148° |
| 2026-05-04 12:51 | 52.08535 | -1.69247 | 22387 ft | 389 kts | 148° |
| 2026-05-04 12:51 | 52.06251 | -1.66822 | 21847 ft | 384 kts | 148° |
| 2026-05-04 12:51 | 52.04243 | -1.64693 | 21372 ft | 381 kts | 148° |
| 2026-05-04 12:52 | 52.02240 | -1.62570 | 20904 ft | 377 kts | 148° |
| 2026-05-04 12:52 | 52.00529 | -1.60757 | 20552 ft | 372 kts | 148° |
| 2026-05-04 12:52 | 51.98374 | -1.58476 | 20053 ft | 368 kts | 148° |
| 2026-05-04 12:52 | 51.96244 | -1.56224 | 19560 ft | 365 kts | 148° |
| 2026-05-04 12:53 | 51.94116 | -1.53976 | 19071 ft | 363 kts | 148° |
| 2026-05-04 12:53 | 51.92012 | -1.51756 | 18535 ft | 362 kts | 148° |
| 2026-05-04 12:53 | 51.89907 | -1.49537 | 18065 ft | 358 kts | 148° |
| 2026-05-04 12:53 | 51.87829 | -1.47350 | 17553 ft | 355 kts | 148° |
| 2026-05-04 12:54 | 51.86056 | -1.45484 | 17137 ft | 352 kts | 148° |
| 2026-05-04 12:54 | 51.84019 | -1.43343 | 16685 ft | 348 kts | 148° |
| 2026-05-04 12:54 | 51.82001 | -1.41225 | 16212 ft | 345 kts | 148° |
| 2026-05-04 12:54 | 51.80068 | -1.39200 | 15750 ft | 342 kts | 148° |
| 2026-05-04 12:55 | 51.78077 | -1.37115 | 15306 ft | 339 kts | 148° |
| 2026-05-04 12:55 | 51.76295 | -1.35252 | 15110 ft | 349 kts | 148° |
| 2026-05-04 12:55 | 51.74226 | -1.33095 | 15052 ft | 356 kts | 148° |
| 2026-05-04 12:55 | 51.72287 | -1.31072 | 15047 ft | 353 kts | 148° |
| 2026-05-04 12:56 | 51.70357 | -1.29058 | 15044 ft | 354 kts | 148° |
| 2026-05-04 12:56 | 51.68291 | -1.26901 | 15022 ft | 354 kts | 148° |
| 2026-05-04 12:56 | 51.66225 | -1.24743 | 15021 ft | 354 kts | 148° |
| 2026-05-04 12:56 | 51.64485 | -1.22930 | 15021 ft | 354 kts | 148° |
| 2026-05-04 12:57 | 51.62336 | -1.20691 | 15021 ft | 354 kts | 148° |
| 2026-05-04 12:57 | 51.60267 | -1.18535 | 15024 ft | 354 kts | 148° |
| 2026-05-04 12:57 | 51.58199 | -1.16384 | 15022 ft | 354 kts | 148° |
| 2026-05-04 12:57 | 51.56131 | -1.14234 | 15021 ft | 353 kts | 148° |
| 2026-05-04 12:58 | 51.54766 | -1.12812 | 15021 ft | 352 kts | 148° |
| 2026-05-04 12:58 | 51.52762 | -1.10726 | 15021 ft | 352 kts | 148° |
| 2026-05-04 12:58 | 51.50901 | -1.08790 | 15009 ft | 352 kts | 148° |
| 2026-05-04 12:58 | 51.48973 | -1.06785 | 14807 ft | 350 kts | 148° |
| 2026-05-04 12:59 | 51.47187 | -1.04928 | 14453 ft | 349 kts | 148° |
| 2026-05-04 12:59 | 51.45126 | -1.02782 | 13965 ft | 348 kts | 148° |
| 2026-05-04 12:59 | 51.43105 | -1.00673 | 13446 ft | 346 kts | 148° |
| 2026-05-04 12:59 | 51.41099 | -0.98580 | 12942 ft | 342 kts | 148° |
| 2026-05-04 13:00 | 51.39145 | -0.96539 | 12750 ft | 325 kts | 148° |
| 2026-05-04 13:00 | 51.37484 | -0.94797 | 12563 ft | 309 kts | 148° |
| 2026-05-04 13:00 | 51.35735 | -0.92960 | 12271 ft | 296 kts | 148° |
| 2026-05-04 13:00 | 51.34141 | -0.91229 | 11742 ft | 293 kts | 144° |
| 2026-05-04 13:01 | 51.32542 | -0.89216 | 11194 ft | 290 kts | 142° |
| 2026-05-04 13:01 | 51.31241 | -0.86798 | 10627 ft | 290 kts | 119° |
| 2026-05-04 13:01 | 51.30390 | -0.83900 | 10203 ft | 285 kts | 116° |
| 2026-05-04 13:01 | 51.29685 | -0.81395 | 10065 ft | 289 kts | 116° |
| 2026-05-04 13:02 | 51.28912 | -0.78646 | 10026 ft | 289 kts | 116° |
| 2026-05-04 13:02 | 51.28187 | -0.76080 | 10027 ft | 290 kts | 116° |
| 2026-05-04 13:02 | 51.27354 | -0.73132 | 10020 ft | 290 kts | 116° |
| 2026-05-04 13:02 | 51.26534 | -0.70231 | 10020 ft | 288 kts | 116° |
| 2026-05-04 13:03 | 51.25709 | -0.67313 | 10022 ft | 289 kts | 116° |
| 2026-05-04 13:03 | 51.25063 | -0.64296 | 10022 ft | 290 kts | 102° |
| 2026-05-04 13:03 | 51.24737 | -0.61289 | 10008 ft | 290 kts | 101° |
| 2026-05-04 13:03 | 51.24470 | -0.58713 | 9877 ft | 289 kts | 101° |
| 2026-05-04 13:04 | 51.24178 | -0.55922 | 9574 ft | 287 kts | 102° |
| 2026-05-04 13:04 | 51.23530 | -0.53251 | 9195 ft | 283 kts | 125° |
| 2026-05-04 13:04 | 51.22178 | -0.51000 | 8783 ft | 280 kts | 140° |
| 2026-05-04 13:04 | 51.20696 | -0.48995 | 8397 ft | 279 kts | 141° |
| 2026-05-04 13:05 | 51.19220 | -0.47009 | 8104 ft | 274 kts | 141° |
| 2026-05-04 13:05 | 51.17756 | -0.45046 | 7864 ft | 276 kts | 141° |
| 2026-05-04 13:05 | 51.16309 | -0.43111 | 7554 ft | 275 kts | 141° |
| 2026-05-04 13:05 | 51.14863 | -0.41177 | 7205 ft | 274 kts | 141° |
| 2026-05-04 13:06 | 51.13401 | -0.39223 | 6836 ft | 272 kts | 141° |
| 2026-05-04 13:06 | 51.12054 | -0.37441 | 6474 ft | 272 kts | 141° |
| 2026-05-04 13:06 | 51.10870 | -0.35885 | 6177 ft | 271 kts | 141° |
| 2026-05-04 13:06 | 51.09569 | -0.34177 | 5841 ft | 270 kts | 141° |
| 2026-05-04 13:07 | 51.08274 | -0.32485 | 5493 ft | 269 kts | 142° |
| 2026-05-04 13:07 | 51.06663 | -0.31034 | 5109 ft | 267 kts | 165° |
| 2026-05-04 13:07 | 51.04835 | -0.30907 | 4700 ft | 266 kts | 193° |
| 2026-05-04 13:07 | 51.03184 | -0.32162 | 4288 ft | 265 kts | 221° |
| 2026-05-04 13:08 | 51.02106 | -0.34455 | 3888 ft | 265 kts | 248° |
| 2026-05-04 13:08 | 51.01831 | -0.37350 | 3484 ft | 264 kts | 278° |
| 2026-05-04 13:08 | 51.02434 | -0.39978 | 3319 ft | 249 kts | 300° |
| 2026-05-04 13:08 | 51.03086 | -0.41771 | 3200 ft | 237 kts | 301° |
| 2026-05-04 13:09 | 51.03913 | -0.44030 | 3008 ft | 229 kts | 301° |
| 2026-05-04 13:09 | 51.04704 | -0.46193 | 3002 ft | 234 kts | 301° |
| 2026-05-04 13:09 | 51.05520 | -0.48419 | 3001 ft | 232 kts | 302° |
| 2026-05-04 13:09 | 51.06632 | -0.50212 | 3003 ft | 231 kts | 333° |
| 2026-05-04 13:10 | 51.08171 | -0.50788 | 3001 ft | 229 kts | 5° |
| 2026-05-04 13:10 | 51.09507 | -0.50079 | 2998 ft | 216 kts | 37° |
| 2026-05-04 13:10 | 51.10390 | -0.48587 | 2996 ft | 200 kts | 59° |
| 2026-05-04 13:10 | 51.10962 | -0.46573 | 3001 ft | 204 kts | 72° |
| 2026-05-04 13:11 | 51.11334 | -0.44390 | 2993 ft | 201 kts | 77° |
| 2026-05-04 13:11 | 51.11620 | -0.42320 | 2963 ft | 185 kts | 78° |
| 2026-05-04 13:11 | 51.11891 | -0.40354 | 2725 ft | 179 kts | 78° |
| 2026-05-04 13:11 | 51.12154 | -0.38435 | 2482 ft | 175 kts | 77° |
| 2026-05-04 13:12 | 51.12410 | -0.36575 | 2265 ft | 167 kts | 77° |
| 2026-05-04 13:12 | 51.12640 | -0.34902 | 2042 ft | 154 kts | 78° |
| 2026-05-04 13:12 | 51.12835 | -0.33481 | 1854 ft | 141 kts | 77° |
| 2026-05-04 13:12 | 51.13002 | -0.32266 | 1726 ft | 139 kts | 77° |
| 2026-05-04 13:13 | 51.13196 | -0.30851 | 1528 ft | 139 kts | 77° |
| 2026-05-04 13:13 | 51.13399 | -0.29368 | 1354 ft | 139 kts | 77° |
| 2026-05-04 13:13 | 51.13582 | -0.28034 | 1184 ft | 139 kts | 77° |
| 2026-05-04 13:13 | 51.13765 | -0.26700 | 1013 ft | 136 kts | 77° |
| 2026-05-04 13:14 | 51.13962 | -0.25233 | 807 ft | 135 kts | 77° |
| 2026-05-04 13:14 | 51.14144 | -0.23778 | 613 ft | 133 kts | 77° |
| 2026-05-04 13:14 | 51.14342 | -0.22353 | 429 ft | 133 kts | 75° |
| 2026-05-04 13:14 | 51.14542 | -0.20921 | 265 ft | 131 kts | 76° |
| 2026-05-04 13:15 | 51.14736 | -0.19550 | 206 ft | 115 kts | 78° |
| 2026-05-04 13:15 | 51.14867 | -0.18619 | 201 ft | 57 kts | 77° |
| 2026-05-04 13:15 | 51.14939 | -0.18128 | 206 ft | 42 kts | 72° |
| 2026-05-04 13:15 | 51.15070 | -0.17779 | 205 ft | 16 kts | 34° |
| 2026-05-04 13:16 | 51.15101 | -0.17759 | 211 ft | 0 kts | 6° |
| 2026-05-04 13:17 | 51.15123 | -0.17756 | 207 ft | 9 kts | 6° |
| 2026-05-04 13:17 | 51.15177 | -0.17721 | 211 ft | 11 kts | 50° |
| 2026-05-04 13:17 | 51.15194 | -0.17614 | 212 ft | 5 kts | 76° |
| 2026-05-04 13:17 | 51.15195 | -0.17611 | 212 ft | 2 kts | 76° |
| 2026-05-04 13:18 | 51.15204 | -0.17547 | 210 ft | 10 kts | 78° |
| 2026-05-04 13:18 | 51.15219 | -0.17439 | 211 ft | 0 kts | 76° |
| 2026-05-04 13:20 | 51.15221 | -0.17431 | 208 ft | 4 kts | 76° |
| 2026-05-04 13:20 | 51.15233 | -0.17342 | 214 ft | 17 kts | 79° |
| 2026-05-04 13:20 | 51.15259 | -0.17146 | 202 ft | 18 kts | 78° |
| 2026-05-04 13:21 | 51.15277 | -0.17008 | 210 ft | 15 kts | 78° |
| 2026-05-04 13:21 | 51.15301 | -0.16830 | 204 ft | 17 kts | 77° |
| 2026-05-04 13:21 | 51.15319 | -0.16732 | 209 ft | 0 kts | 69° |
| 2026-05-04 13:22 | 51.15320 | -0.16727 | 207 ft | 3 kts | 69° |
| 2026-05-04 13:22 | 51.15347 | -0.16657 | 210 ft | 12 kts | 59° |
| 2026-05-04 13:23 | 51.15369 | -0.16523 | 204 ft | 15 kts | 73° |
| 2026-05-04 13:23 | 51.15398 | -0.16418 | 203 ft | 10 kts | 75° |
| 2026-05-04 13:23 | 51.15399 | -0.16407 | 205 ft | 0 kts | 78° |